createdAt,value
2023-05-05T00:01:07.345Z,38.45
2023-05-05T00:03:39.548Z,38.41
2023-05-05T00:06:08.300Z,38.52
2023-05-05T00:08:36.622Z,38.63
2023-05-05T00:11:06.314Z,38.85
2023-05-05T00:13:34.646Z,38.94
2023-05-05T00:16:04.784Z,39.03
2023-05-05T00:18:33.940Z,39.04
2023-05-05T00:21:02.399Z,39.00
2023-05-05T00:23:30.703Z,39.25
2023-05-05T00:26:01.690Z,39.41
2023-05-05T00:28:31.812Z,39.26
2023-05-05T00:31:00.222Z,39.48
2023-05-05T00:33:28.662Z,39.84
2023-05-05T00:35:56.969Z,39.57
2023-05-05T00:38:25.304Z,39.79
2023-05-05T00:40:53.670Z,39.96
2023-05-05T00:43:21.978Z,39.96
2023-05-05T00:45:57.279Z,39.96
2023-05-05T00:48:25.877Z,40.12
2023-05-05T00:50:54.443Z,40.15
2023-05-05T00:53:22.884Z,40.31
2023-05-05T00:55:52.083Z,40.25
2023-05-05T00:58:20.663Z,40.36
2023-05-05T01:00:48.977Z,40.49
2023-05-05T01:03:18.726Z,40.46
2023-05-05T01:05:58.292Z,40.54
2023-05-05T01:08:47.919Z,40.55
2023-05-05T01:11:27.308Z,40.56
2023-05-05T01:14:09.553Z,40.57
2023-05-05T01:16:42.849Z,40.79
2023-05-05T01:19:42.002Z,40.56
2023-05-05T01:22:15.176Z,40.62
2023-05-05T01:25:05.238Z,40.93
2023-05-05T01:27:56.772Z,40.80
2023-05-05T01:30:57.255Z,40.88
2023-05-05T01:33:34.557Z,41.00
2023-05-05T01:36:07.895Z,41.20
2023-05-05T01:38:41.808Z,41.29
2023-05-05T01:41:17.720Z,41.45
2023-05-05T01:43:50.361Z,41.41
2023-05-05T01:46:20.370Z,41.56
2023-05-05T01:48:50.492Z,41.64
2023-05-05T01:51:20.687Z,41.82
2023-05-05T01:53:51.325Z,41.88
2023-05-05T01:56:21.751Z,41.76
2023-05-05T01:58:50.820Z,41.90
2023-05-05T02:01:22.686Z,41.92
2023-05-05T02:03:53.234Z,41.95
2023-05-05T02:06:23.157Z,41.97
2023-05-05T02:08:55.981Z,42.01
2023-05-05T02:11:26.193Z,42.08
2023-05-05T02:13:55.832Z,42.11
2023-05-05T02:16:25.148Z,42.37
2023-05-05T02:18:55.706Z,42.34
2023-05-05T02:21:23.978Z,42.42
2023-05-05T02:23:53.630Z,42.16
2023-05-05T02:26:23.975Z,42.46
2023-05-05T02:29:03.246Z,42.43
2023-05-05T02:31:33.903Z,42.45
2023-05-05T02:34:06.671Z,42.50
2023-05-05T02:36:39.578Z,42.47
2023-05-05T02:39:14.902Z,42.47
2023-05-05T02:41:47.714Z,42.52
2023-05-05T02:44:16.994Z,42.53
2023-05-05T02:46:46.428Z,42.53
2023-05-05T02:49:16.659Z,42.70
2023-05-05T02:51:45.066Z,42.66
2023-05-05T02:54:13.492Z,42.86
2023-05-05T02:56:45.768Z,42.91
2023-05-05T02:59:19.869Z,42.98
2023-05-05T03:02:00.462Z,43.08
2023-05-05T03:04:37.971Z,43.10
2023-05-05T03:07:12.045Z,43.05
2023-05-05T03:09:47.699Z,43.19
2023-05-05T03:12:22.828Z,43.22
2023-05-05T03:14:55.009Z,43.29
2023-05-05T03:17:31.707Z,43.09
2023-05-05T03:20:03.615Z,43.27
2023-05-05T03:22:32.503Z,43.33
2023-05-05T03:25:00.765Z,43.32
2023-05-05T03:27:29.289Z,43.47
2023-05-05T03:29:57.899Z,43.36
2023-05-05T03:32:27.204Z,43.49
2023-05-05T03:34:55.653Z,43.66
2023-05-05T03:37:25.434Z,43.66
2023-05-05T03:39:53.704Z,43.64
2023-05-05T03:42:22.069Z,43.62
2023-05-05T03:44:50.365Z,43.70
2023-05-05T03:47:18.687Z,43.70
2023-05-05T03:49:46.970Z,43.76
2023-05-05T03:52:15.347Z,43.76
2023-05-05T03:54:48.099Z,43.75
2023-05-05T03:57:16.706Z,44.07
2023-05-05T03:59:45.021Z,43.85
2023-05-05T04:02:15.583Z,43.97
2023-05-05T04:04:45.319Z,44.08
2023-05-05T04:07:13.666Z,44.01
2023-05-05T04:09:46.432Z,44.05
2023-05-05T04:12:14.972Z,44.12
2023-05-05T04:14:43.249Z,44.16
2023-05-05T04:17:11.576Z,44.22
2023-05-05T04:19:42.229Z,44.22
2023-05-05T04:22:10.481Z,44.32
2023-05-05T04:24:38.826Z,44.40
2023-05-05T04:27:08.482Z,44.50
2023-05-05T04:29:36.804Z,44.41
2023-05-05T04:32:05.281Z,44.57
2023-05-05T04:34:33.590Z,44.59
2023-05-05T04:37:01.871Z,44.70
2023-05-05T04:39:31.425Z,44.80
2023-05-05T04:41:59.713Z,44.94
2023-05-05T04:44:29.510Z,45.07
2023-05-05T04:46:57.873Z,45.27
2023-05-05T04:49:26.191Z,45.40
2023-05-05T04:51:54.540Z,45.44
2023-05-05T04:54:28.079Z,45.80
2023-05-05T04:56:56.657Z,45.62
2023-05-05T04:59:24.922Z,45.56
2023-05-05T05:01:54.735Z,45.64
2023-05-05T05:04:29.998Z,45.69
2023-05-05T05:07:01.393Z,45.64
2023-05-05T05:09:29.714Z,45.70
2023-05-05T05:12:02.861Z,45.87
2023-05-05T05:14:37.052Z,45.82
2023-05-05T05:17:06.931Z,45.84
2023-05-05T05:19:35.466Z,45.87
2023-05-05T05:22:03.838Z,45.91
2023-05-05T05:24:32.304Z,45.91
2023-05-05T05:27:01.345Z,46.03
2023-05-05T05:29:32.140Z,46.21
2023-05-05T05:32:00.524Z,46.06
2023-05-05T05:34:30.282Z,46.04
2023-05-05T05:36:58.574Z,46.12
2023-05-05T05:39:26.968Z,46.19
2023-05-05T05:41:55.437Z,46.33
2023-05-05T05:44:23.880Z,46.39
2023-05-05T05:46:52.173Z,46.39
2023-05-05T05:49:23.461Z,46.36
2023-05-05T05:51:53.171Z,46.27
2023-05-05T05:54:21.484Z,46.32
2023-05-05T05:56:49.794Z,46.65
2023-05-05T05:59:29.844Z,46.67
2023-05-05T06:01:58.580Z,46.43
2023-05-05T06:04:26.950Z,46.52
2023-05-05T06:06:57.608Z,46.47
2023-05-05T06:09:26.309Z,46.59
2023-05-05T06:11:54.581Z,46.43
2023-05-05T06:14:22.912Z,46.34
2023-05-05T06:16:52.341Z,46.10
2023-05-05T06:19:23.767Z,45.76
2023-05-05T06:21:52.120Z,45.62
2023-05-05T06:24:22.504Z,45.92
2023-05-05T06:26:50.822Z,45.82
2023-05-05T06:29:19.239Z,45.10
2023-05-05T06:31:47.584Z,45.55
2023-05-05T06:34:15.879Z,45.15
2023-05-05T06:36:44.213Z,45.37
2023-05-05T06:39:14.017Z,44.88
2023-05-05T06:41:45.526Z,44.83
2023-05-05T06:44:13.822Z,45.13
2023-05-05T06:46:43.610Z,45.23
2023-05-05T06:49:12.344Z,44.74
2023-05-05T06:51:42.738Z,44.74
2023-05-05T06:54:11.324Z,44.45
2023-05-05T06:56:39.692Z,43.75
2023-05-05T06:59:09.648Z,43.65
2023-05-05T07:01:38.231Z,43.88
2023-05-05T07:04:07.183Z,43.74
2023-05-05T07:06:35.624Z,43.68
2023-05-05T07:09:04.477Z,42.70
2023-05-05T07:11:32.757Z,43.14
2023-05-05T07:14:01.147Z,42.84
2023-05-05T07:16:30.890Z,42.49
2023-05-05T07:19:00.831Z,42.60
2023-05-05T07:21:29.151Z,41.92
2023-05-05T07:23:57.465Z,41.64
2023-05-05T07:26:26.184Z,41.83
2023-05-05T07:28:55.551Z,41.17
2023-05-05T07:31:23.940Z,39.69
2023-05-05T07:33:53.760Z,39.41
2023-05-05T07:36:22.324Z,40.15
2023-05-05T07:38:50.699Z,40.47
2023-05-05T07:41:19.301Z,40.27
2023-05-05T07:43:50.625Z,40.08
2023-05-05T07:46:19.552Z,40.40
2023-05-05T07:48:47.988Z,39.97
2023-05-05T07:53:46.032Z,40.47
2023-05-05T07:56:14.377Z,40.52
2023-05-05T07:58:42.747Z,39.87
2023-05-05T08:01:12.814Z,40.27
2023-05-05T08:03:41.395Z,39.76
2023-05-05T08:06:10.747Z,39.48
2023-05-05T08:08:40.463Z,39.97
2023-05-05T08:11:08.830Z,39.24
2023-05-05T08:13:37.134Z,39.22
2023-05-05T08:16:06.133Z,39.26
2023-05-05T08:18:37.476Z,39.17
2023-05-05T08:21:06.286Z,38.34
2023-05-05T08:23:34.802Z,38.39
2023-05-05T08:26:06.224Z,37.96
2023-05-05T08:28:36.414Z,38.24
2023-05-05T08:31:05.585Z,38.02
2023-05-05T08:33:33.971Z,37.18
2023-05-05T08:36:02.425Z,37.72
2023-05-05T08:38:30.721Z,36.83
2023-05-05T16:42:31.697Z,28.30
2023-05-05T16:45:00.214Z,28.87
2023-05-05T16:47:28.653Z,28.78
2023-05-05T16:49:57.259Z,28.60
2023-05-05T16:52:25.658Z,28.87
2023-05-05T16:54:55.776Z,29.37
2023-05-05T16:57:24.510Z,28.86
2023-05-05T16:59:57.091Z,28.58
2023-05-05T17:02:25.635Z,29.15
2023-05-05T17:04:56.179Z,28.90
2023-05-05T17:07:24.664Z,29.75
2023-05-05T17:09:53.219Z,29.55
2023-05-05T17:12:21.604Z,29.83
2023-05-05T17:14:49.993Z,29.84
2023-05-05T17:17:19.776Z,30.43
2023-05-05T17:19:48.156Z,29.85
2023-05-05T17:22:16.525Z,30.00
2023-05-05T17:24:44.935Z,30.17
2023-05-05T17:27:13.415Z,30.73
2023-05-05T17:29:41.775Z,30.94
2023-05-05T17:32:10.481Z,30.66
2023-05-05T17:34:41.146Z,30.60
2023-05-05T17:37:10.130Z,30.52
2023-05-05T17:39:38.489Z,31.01
2023-05-05T17:42:07.067Z,31.57
2023-05-05T17:44:35.432Z,31.45
2023-05-05T17:47:04.046Z,31.19
2023-05-05T17:49:32.469Z,31.51
2023-05-05T17:52:02.187Z,31.78
2023-05-05T17:54:30.721Z,32.50
2023-05-05T17:56:59.661Z,31.75
2023-05-05T17:59:28.138Z,31.81
2023-05-05T18:01:56.493Z,32.24
2023-05-05T18:04:30.590Z,32.37
2023-05-05T18:06:58.958Z,32.25
2023-05-05T18:09:28.656Z,32.52
2023-05-05T18:11:57.112Z,32.10
2023-05-05T18:14:25.497Z,32.57
2023-05-05T18:16:54.065Z,33.26
2023-05-05T18:19:24.378Z,33.48
2023-05-05T18:21:55.075Z,33.62
2023-05-05T18:24:33.360Z,33.60
2023-05-05T18:27:01.731Z,33.89
2023-05-05T18:29:30.096Z,33.91
2023-05-05T18:31:58.567Z,34.45
2023-05-05T18:34:27.480Z,34.62
2023-05-05T18:36:57.090Z,34.29
2023-05-05T18:39:25.785Z,34.21
2023-05-05T18:41:55.785Z,34.48
2023-05-05T18:44:29.218Z,34.67
2023-05-05T18:46:57.644Z,34.89
2023-05-05T18:49:26.775Z,34.92
2023-05-05T18:51:56.896Z,35.09
2023-05-05T18:54:25.793Z,34.91
2023-05-05T18:56:55.907Z,35.02
2023-05-05T18:59:25.492Z,34.93
2023-05-05T19:01:53.821Z,35.51
2023-05-05T19:04:30.785Z,36.20
2023-05-05T19:07:00.108Z,36.50
2023-05-05T19:09:28.934Z,36.44
2023-05-05T19:11:58.673Z,36.23
2023-05-05T19:14:27.250Z,36.67
2023-05-05T19:16:56.231Z,37.16
2023-05-05T19:19:35.582Z,37.00
2023-05-05T19:22:04.214Z,37.33
2023-05-05T19:24:32.593Z,37.44
2023-05-05T19:27:03.350Z,37.70
2023-05-05T19:29:32.203Z,37.48
2023-05-05T19:32:00.640Z,37.70
2023-05-05T19:34:29.087Z,37.87
2023-05-05T19:36:57.442Z,38.09
2023-05-05T19:39:26.269Z,37.93
2023-05-05T19:41:54.640Z,38.49
2023-05-05T19:44:32.073Z,38.82
2023-05-05T19:47:00.502Z,39.06
2023-05-05T19:49:32.016Z,39.34
2023-05-05T19:52:00.548Z,39.86
2023-05-05T19:54:29.497Z,40.13
2023-05-05T19:56:58.051Z,40.74
2023-05-05T19:59:28.683Z,41.17
2023-05-05T20:01:58.522Z,41.43
2023-05-05T20:04:26.887Z,41.49
2023-05-05T20:06:55.310Z,41.66
2023-05-05T20:09:23.707Z,41.80
2023-05-05T20:11:52.091Z,41.82
2023-05-05T20:14:22.669Z,42.13
2023-05-05T20:16:50.998Z,42.43
2023-05-05T20:19:21.004Z,42.14
2023-05-05T20:21:49.291Z,42.20
2023-05-05T20:24:24.943Z,42.60
2023-05-05T20:26:53.248Z,42.70
2023-05-05T20:29:22.171Z,42.53
2023-05-05T20:31:50.560Z,42.49
2023-05-05T20:34:20.397Z,42.91
2023-05-05T20:36:48.723Z,42.89
2023-05-05T20:39:17.325Z,42.72
2023-05-05T20:41:46.291Z,42.94
2023-05-05T20:44:14.685Z,43.13
2023-05-05T20:46:43.234Z,42.82
2023-05-05T20:49:15.292Z,42.82
2023-05-05T20:51:45.309Z,43.46
2023-05-05T20:54:13.609Z,43.14
2023-05-05T20:56:41.880Z,43.24
2023-05-05T20:59:10.253Z,43.81
2023-05-05T21:01:38.488Z,43.70
2023-05-05T21:04:07.160Z,44.08
2023-05-05T21:06:35.531Z,43.78
2023-05-05T21:09:06.784Z,44.33
2023-05-05T21:11:35.235Z,44.20
2023-05-05T21:14:09.419Z,44.63
2023-05-05T21:16:37.684Z,44.99
2023-05-05T21:19:06.017Z,45.18
2023-05-05T21:21:34.466Z,45.37
2023-05-05T21:24:05.595Z,45.29
2023-05-05T21:26:36.104Z,46.05
2023-05-05T21:29:04.441Z,45.98
2023-05-05T21:31:32.930Z,46.41
2023-05-05T21:34:01.244Z,46.69
2023-05-05T21:36:30.123Z,46.81
2023-05-05T21:39:00.259Z,46.84
2023-05-05T21:41:30.157Z,47.38
2023-05-05T21:43:59.477Z,47.77
2023-05-05T21:46:27.895Z,47.84
2023-05-05T21:48:56.342Z,47.86
2023-05-05T21:51:24.653Z,47.84
2023-05-05T21:53:52.924Z,47.97
2023-05-05T21:56:21.251Z,48.23
2023-05-05T21:58:50.945Z,48.47
2023-05-05T22:01:19.225Z,48.41
2023-05-05T22:03:47.872Z,48.32
2023-05-05T22:06:18.521Z,48.69
2023-05-05T22:08:49.708Z,48.96
2023-05-05T22:11:21.375Z,48.62
2023-05-05T22:13:51.937Z,49.10
2023-05-05T22:16:20.289Z,49.30
2023-05-05T22:18:51.377Z,49.04
2023-05-05T22:21:19.783Z,49.41
2023-05-05T22:23:48.137Z,49.54
2023-05-05T22:26:19.525Z,49.35
2023-05-05T22:28:47.865Z,49.67
2023-05-05T22:31:19.537Z,49.70
2023-05-05T22:33:49.827Z,49.91
2023-05-05T22:36:23.653Z,49.71
2023-05-05T22:38:51.968Z,49.80
2023-05-05T22:41:20.480Z,49.76
2023-05-05T22:43:49.344Z,50.20
2023-05-05T22:46:18.988Z,50.19
2023-05-05T22:48:47.461Z,50.38
2023-05-05T22:51:15.783Z,50.71
2023-05-05T22:53:44.115Z,50.71
2023-05-05T22:56:12.419Z,50.60
2023-05-05T22:58:40.745Z,50.64
2023-05-05T23:01:09.074Z,50.81
2023-05-05T23:03:38.933Z,50.82
2023-05-05T23:06:07.482Z,50.96
2023-05-05T23:08:35.900Z,50.88
2023-05-05T23:11:04.277Z,51.36
2023-05-05T23:13:32.739Z,51.38
2023-05-05T23:16:01.089Z,51.49
2023-05-05T23:18:29.465Z,51.21
2023-05-05T23:20:59.259Z,51.38
2023-05-05T23:23:27.569Z,51.15
2023-05-05T23:25:56.088Z,51.14
2023-05-05T23:28:24.456Z,50.92
2023-05-05T23:30:52.980Z,51.17
2023-05-05T23:33:21.381Z,51.29
2023-05-05T23:35:49.798Z,51.46
2023-05-05T23:38:19.462Z,51.29
2023-05-05T23:40:47.777Z,51.25
2023-05-05T23:43:16.047Z,51.69
2023-05-05T23:45:44.345Z,51.52
2023-05-05T23:48:13.585Z,51.89
2023-05-05T23:50:41.833Z,51.74
2023-05-05T23:53:10.581Z,51.71
2023-05-05T23:55:40.231Z,51.51
2023-05-05T23:58:08.551Z,51.62
